Marshallville, Georgia
Current Conditions -  °F | °C
As of 5:15 PM on Sunday 23 Nov 2014 (Local Time) from KPXE Reporting Station
Thunderstorm Thunderstorm  
Wind Chill: 67°   Ceiling: 3500
Heat Index: 67°   Visibility: 5mi
Dew Point: 64°   Wind: 16mph
Humidity: 91%   Direction: 260°W
Pressure: 29.81"   Gusts: 28mph
Location:  32.46°N, 83.94°W
Report Text: KPXE 232215Z AUTO 26014G24KT 5SM +VCTSRA SCT007 SCT021 BKN035 20/18 A2981 RMK AO2 LTG DSNT NE THRU SW T01950180
Loading
Personal Weather Stations






























Interactive Weather Map New forecast layout! Learn more

10-Day Weather Forecast

Advertisements
Track Severe Weather on mobile